الصفحة الرئيسية
METAR-TAF:

METAR-TAF

مطار :

نواكشوط, موريتانيا

مطار نواكشوط الدولي

دائرة عرض: 18-18-36N, خط طول: 015-58-11W, ارتفاع: 3 متر

مراقبة الطقس الحالي

تاريخ ووقت الإصدار 22 دقيقة قبل الساعة 18:00UTC
ريح 8 عقدة من الشمال الشرقي, الاتجاه يتراوح بين الشمال و الشرق
درجة الحرارة 25°درجة مئوية
الرطوبة 41%
ضغط 1009 hPa
الرؤية: 8000 متر

METAR: GQNO 181800Z 04008KT 010V080 8000 NSC 25/11 Q1009 NOSIG

زمن: 18:22 (18:22 UTC)

توقعات

تاريخ ووقت الإصدار 1ساعة و 22 دقيقة قبل الساعة 17:00UTC
التوقعات صالحة من18 الساعة 18 UTC إلى 19 الساعة 24 UTC
ريح 12 عقدة من الشمال
الرؤية: 7000 متر
مؤقت
من 19 الساعة 09 UTC إلى 19 الساعة 16 UTC
ريح 12 عقدة من الشرق/الشمال الشرقي

TAF: GQNO 181700Z 1818/1924 35012KT 7000 NSC TEMPO 1909/1916 06012KT

أرصاد الطقس والتوقعات من أكثر من 4000 مطار (تقارير الطقس للمطار METAR والتنبؤ بالطقس بالمطارTAF).

المحطات المتاحة هي النقط الصفراء والحمراء على الخريطة.

حرك المؤشر فوق النقطة لمعرفة اسم المحطة.

ثم انقر لمعرفة أرصاد وتوقعات الطقس.

لتغيير الخارطة: اضغط على الأزرار الخضراء مع رمز الصليب الأسود للتكبير. على الزر الأخضر مع شرطة للتصغير، أو على الأسهم الخضراء للخرائط المجاورة.


METAR-TAF: